createdAt,value
2019-01-31T00:01:40.222Z,96523.98
2019-01-31T00:04:39.983Z,96523.15
2019-01-31T00:07:55.163Z,96524.89
2019-01-31T00:11:07.028Z,96518.34
2019-01-31T00:13:55.037Z,96520.47
2019-01-31T00:17:05.583Z,96510.22
2019-01-31T00:19:55.001Z,96506.66
2019-01-31T00:23:06.175Z,96506.39
2019-01-31T00:26:14.914Z,96506.23
2019-01-31T00:28:55.322Z,96502.13
2019-01-31T00:31:32.454Z,96502.76
2019-01-31T00:34:36.979Z,96513.09
2019-01-31T00:37:37.161Z,96506.89
2019-01-31T00:40:47.443Z,96508.28
2019-01-31T00:43:40.375Z,96507.36
2019-01-31T00:46:36.908Z,96497.50
2019-01-31T00:49:46.980Z,96502.63
2019-01-31T00:52:49.919Z,96502.68
2019-01-31T00:55:50.920Z,96504.52
2019-01-31T00:59:03.987Z,96501.13
2019-01-31T01:02:22.255Z,96512.67
2019-01-31T01:05:29.648Z,96514.11
2019-01-31T01:08:25.996Z,96511.64
2019-01-31T01:11:37.815Z,96506.53
2019-01-31T01:14:40.530Z,96510.09
2019-01-31T01:17:14.911Z,96508.19
2019-01-31T01:20:34.528Z,96507.70
2019-01-31T01:23:44.511Z,96509.30
2019-01-31T01:26:49.120Z,96513.23
2019-01-31T01:30:10.731Z,96517.56
2019-01-31T01:33:06.988Z,96520.87
2019-01-31T01:36:23.087Z,96518.80
2019-01-31T01:39:24.447Z,96515.89
2019-01-31T01:42:17.641Z,96521.97
2019-01-31T01:45:28.498Z,96524.41
2019-01-31T01:48:16.158Z,96521.91
2019-01-31T01:51:13.564Z,96521.25
2019-01-31T01:54:00.093Z,96514.48
2019-01-31T01:57:06.263Z,96512.43
2019-01-31T02:00:06.345Z,96513.77
2019-01-31T02:02:59.227Z,96513.53
2019-01-31T02:05:43.229Z,96511.33
2019-01-31T02:08:47.461Z,96514.15
2019-01-31T02:11:37.812Z,96503.37
2019-01-31T02:15:06.396Z,96501.38
2019-01-31T02:17:47.539Z,96498.31
2019-01-31T02:21:09.503Z,96487.95
2019-01-31T02:23:49.504Z,96487.27
2019-01-31T02:26:59.008Z,96484.04
2019-01-31T02:29:48.899Z,96490.59
2019-01-31T02:33:17.463Z,96479.06
2019-01-31T02:36:19.923Z,96474.59
2019-01-31T02:39:45.209Z,96477.34
2019-01-31T02:42:41.846Z,96472.94
2019-01-31T02:45:35.928Z,96471.91
2019-01-31T02:48:21.080Z,96465.91
2019-01-31T02:51:12.418Z,96468.59
2019-01-31T02:54:07.924Z,96465.36
2019-01-31T02:57:18.339Z,96458.26
2019-01-31T03:00:43.454Z,96457.85
2019-01-31T03:03:32.972Z,96462.80
2019-01-31T03:06:30.437Z,96469.73
2019-01-31T03:09:33.538Z,96467.29
2019-01-31T03:12:30.135Z,96460.80
2019-01-31T03:15:05.338Z,96457.95
2019-01-31T03:18:01.592Z,96463.03
2019-01-31T03:20:52.368Z,96466.33
2019-01-31T03:23:54.404Z,96463.66
2019-01-31T03:27:01.391Z,96464.27
2019-01-31T03:29:52.320Z,96447.97
2019-01-31T03:32:45.995Z,96452.33
2019-01-31T03:36:17.399Z,96452.52
2019-01-31T03:39:04.715Z,96452.77
2019-01-31T03:42:15.466Z,96451.32
2019-01-31T03:45:00.615Z,96456.05
2019-01-31T03:48:13.852Z,96452.52
2019-01-31T03:51:35.140Z,96454.66
2019-01-31T03:54:51.235Z,96458.48
2019-01-31T03:57:48.770Z,96452.03
2019-01-31T04:00:57.595Z,96449.75
2019-01-31T04:03:47.594Z,96448.87
2019-01-31T04:06:29.407Z,96446.75
2019-01-31T04:08:58.759Z,96456.42
2019-01-31T04:11:28.025Z,96452.30
2019-01-31T04:13:57.300Z,96453.50
2019-01-31T04:16:26.550Z,96452.30
2019-01-31T04:18:55.836Z,96450.84
2019-01-31T04:21:25.164Z,96454.16
2019-01-31T04:23:54.448Z,96450.84
2019-01-31T04:26:23.698Z,96454.72
2019-01-31T04:28:52.977Z,96448.45
2019-01-31T04:31:22.267Z,96449.41
2019-01-31T04:33:51.527Z,96445.66
2019-01-31T04:36:20.823Z,96443.64
2019-01-31T04:38:50.099Z,96448.02
2019-01-31T04:41:19.341Z,96448.93
2019-01-31T04:43:48.621Z,96446.05
2019-01-31T04:46:17.895Z,96450.18
2019-01-31T04:48:47.196Z,96447.14
2019-01-31T04:51:16.467Z,96451.00
2019-01-31T04:53:45.747Z,96445.62
2019-01-31T04:56:15.016Z,96443.94
2019-01-31T04:58:44.269Z,96443.02
2019-01-31T05:01:13.538Z,96444.31
2019-01-31T05:03:42.784Z,96446.05
2019-01-31T05:06:12.072Z,96437.51
2019-01-31T05:08:41.328Z,96439.77
2019-01-31T05:11:10.578Z,96445.08
2019-01-31T05:13:39.863Z,96444.95
2019-01-31T05:16:09.114Z,96438.03
2019-01-31T05:18:38.394Z,96440.22
2019-01-31T05:21:07.643Z,96440.45
2019-01-31T05:23:36.922Z,96440.61
2019-01-31T05:26:06.212Z,96447.42
2019-01-31T05:28:35.473Z,96446.08
2019-01-31T05:31:04.723Z,96445.91
2019-01-31T05:33:34.000Z,96439.87
2019-01-31T05:36:03.262Z,96455.78
2019-01-31T05:38:32.551Z,96449.11
2019-01-31T05:41:01.840Z,96460.64
2019-01-31T05:43:32.192Z,96453.98
2019-01-31T05:46:01.478Z,96445.48
2019-01-31T05:48:30.723Z,96458.45
2019-01-31T05:51:00.016Z,96452.16
2019-01-31T05:53:29.277Z,96447.42
2019-01-31T05:55:58.589Z,96455.78
2019-01-31T05:58:27.867Z,96456.16
2019-01-31T06:00:57.250Z,96456.27
2019-01-31T06:03:28.017Z,96454.95
2019-01-31T06:05:57.329Z,96461.25
2019-01-31T06:08:28.761Z,96455.45
2019-01-31T06:11:07.150Z,96455.19
2019-01-31T06:13:29.355Z,96457.02
2019-01-31T06:15:59.031Z,96464.29
2019-01-31T06:18:28.771Z,96460.18
2019-01-31T06:20:58.271Z,96460.18
2019-01-31T06:23:27.824Z,96458.55
2019-01-31T06:25:57.305Z,96454.95
2019-01-31T06:28:26.840Z,96451.98
2019-01-31T06:30:56.507Z,96454.70
2019-01-31T06:33:28.305Z,96455.52
2019-01-31T06:35:56.984Z,96452.48
2019-01-31T06:38:26.900Z,96454.56
2019-01-31T06:40:56.483Z,96449.57
2019-01-31T06:43:25.944Z,96451.20
2019-01-31T06:45:56.338Z,96451.02
2019-01-31T06:48:25.763Z,96447.94
2019-01-31T06:50:55.094Z,96444.59
2019-01-31T06:53:25.462Z,96442.55
2019-01-31T06:55:54.734Z,96442.89
2019-01-31T06:58:24.060Z,96449.56
2019-01-31T07:00:53.344Z,96443.73
2019-01-31T07:03:22.807Z,96448.34
2019-01-31T07:05:52.090Z,96446.27
2019-01-31T07:08:22.858Z,96450.52
2019-01-31T07:10:52.144Z,96449.08
2019-01-31T07:13:21.412Z,96453.08
2019-01-31T07:15:50.691Z,96461.34
2019-01-31T07:18:20.004Z,96460.05
2019-01-31T07:20:49.273Z,96466.33
2019-01-31T07:23:18.556Z,96464.70
2019-01-31T07:25:47.858Z,96457.37
2019-01-31T07:28:18.938Z,96451.78
2019-01-31T07:30:48.220Z,96460.09
2019-01-31T07:33:17.489Z,96459.31
2019-01-31T07:35:46.779Z,96464.65
2019-01-31T07:38:16.064Z,96460.94
2019-01-31T07:40:45.350Z,96465.47
2019-01-31T07:43:14.611Z,96467.22
2019-01-31T07:45:43.888Z,96467.72
2019-01-31T07:48:13.193Z,96467.03
2019-01-31T07:50:42.490Z,96464.65
2019-01-31T07:53:12.901Z,96461.48
2019-01-31T07:55:42.255Z,96463.30
2019-01-31T07:58:11.570Z,96462.70
2019-01-31T08:00:40.831Z,96468.86
2019-01-31T08:03:10.106Z,96469.80
2019-01-31T08:05:39.400Z,96468.58
2019-01-31T08:08:08.972Z,96459.59
2019-01-31T08:10:40.448Z,96461.61
2019-01-31T08:13:09.815Z,96462.14
2019-01-31T08:15:39.091Z,96463.37
2019-01-31T08:18:10.963Z,96461.06
2019-01-31T08:20:40.845Z,96458.97
2019-01-31T08:23:10.168Z,96461.11
2019-01-31T08:25:39.454Z,96463.56
2019-01-31T08:28:09.195Z,96457.34
2019-01-31T08:30:41.131Z,96465.01
2019-01-31T08:33:10.416Z,96459.41
2019-01-31T08:35:39.678Z,96455.06
2019-01-31T08:38:09.082Z,96445.98
2019-01-31T08:40:38.353Z,96446.20
2019-01-31T08:43:07.629Z,96434.08
2019-01-31T08:45:36.871Z,96438.93
2019-01-31T08:48:06.247Z,96446.90
2019-01-31T08:50:35.591Z,96453.16
2019-01-31T08:53:05.290Z,96451.63
2019-01-31T08:55:34.568Z,96464.05
2019-01-31T08:58:03.902Z,96457.84
2019-01-31T09:00:33.185Z,96452.14
2019-01-31T09:03:02.442Z,96451.55
2019-01-31T09:05:32.479Z,96455.66
2019-01-31T09:08:01.758Z,96454.33
2019-01-31T09:10:33.524Z,96460.55
2019-01-31T09:13:05.012Z,96458.42
2019-01-31T09:15:34.254Z,96455.75
2019-01-31T09:18:03.670Z,96460.34
2019-01-31T09:20:37.230Z,96460.01
2019-01-31T09:23:45.241Z,96462.56
2019-01-31T09:26:54.566Z,96465.95
2019-01-31T09:29:54.254Z,96472.52
2019-01-31T09:33:05.115Z,96466.41
2019-01-31T09:36:08.735Z,96471.45
2019-01-31T09:39:34.204Z,96473.65
2019-01-31T09:42:34.300Z,96471.18
2019-01-31T09:45:28.276Z,96481.55
2019-01-31T09:48:03.393Z,96481.05
2019-01-31T09:50:51.331Z,96475.81
2019-01-31T09:53:41.401Z,96481.82
2019-01-31T09:56:46.293Z,96489.38
2019-01-31T09:59:45.479Z,96489.97
2019-01-31T10:02:40.190Z,96484.16
2019-01-31T10:05:56.358Z,96486.45
2019-01-31T10:08:53.723Z,96481.23
2019-01-31T10:12:03.260Z,96477.09
2019-01-31T10:14:47.788Z,96481.20
2019-01-31T10:17:54.438Z,96468.66
2019-01-31T10:21:05.610Z,96465.94
2019-01-31T10:23:58.895Z,96465.26
2019-01-31T10:27:00.190Z,96468.56
2019-01-31T10:29:53.107Z,96467.50
2019-01-31T10:32:49.660Z,96451.89
2019-01-31T10:35:41.631Z,96452.45
2019-01-31T10:38:38.921Z,96456.23
2019-01-31T10:41:58.382Z,96445.39
2019-01-31T10:44:46.034Z,96441.71
2019-01-31T10:47:43.346Z,96437.39
2019-01-31T10:50:44.067Z,96427.67
2019-01-31T10:53:40.444Z,96429.50
2019-01-31T10:56:53.721Z,96428.17
2019-01-31T10:59:39.602Z,96432.31
2019-01-31T11:02:50.833Z,96427.63
2019-01-31T11:05:56.210Z,96425.16
2019-01-31T11:09:10.663Z,96421.63
2019-01-31T11:12:17.804Z,96427.17
2019-01-31T11:15:12.038Z,96424.30
2019-01-31T11:17:56.919Z,96415.51
2019-01-31T11:20:52.577Z,96415.55
2019-01-31T11:23:56.292Z,96413.22
2019-01-31T11:27:18.596Z,96412.08
2019-01-31T11:30:19.433Z,96400.01
2019-01-31T11:33:19.423Z,96405.23
2019-01-31T11:36:11.706Z,96401.04
2019-01-31T11:39:43.351Z,96392.80
2019-01-31T11:42:58.178Z,96393.44
2019-01-31T11:46:02.928Z,96378.02
2019-01-31T11:49:09.743Z,96374.31
2019-01-31T11:52:19.227Z,96376.89
2019-01-31T11:55:20.246Z,96373.39
2019-01-31T11:58:00.732Z,96371.43
2019-01-31T12:00:30.003Z,96363.98
2019-01-31T12:02:59.250Z,96369.42
2019-01-31T12:05:28.795Z,96368.70
2019-01-31T12:07:58.051Z,96366.13
2019-01-31T12:10:27.574Z,96356.42
2019-01-31T12:12:56.823Z,96354.48
2019-01-31T12:15:26.163Z,96349.53
2019-01-31T12:17:55.425Z,96349.88
2019-01-31T12:20:24.793Z,96342.61
2019-01-31T12:22:55.705Z,96343.11
2019-01-31T12:25:25.360Z,96336.63
2019-01-31T12:27:55.736Z,96343.23
2019-01-31T12:30:27.080Z,96333.48
2019-01-31T12:32:56.555Z,96327.36
2019-01-31T12:35:25.824Z,96327.49
2019-01-31T12:37:55.086Z,96325.30
2019-01-31T12:40:24.359Z,96311.49
2019-01-31T12:42:54.709Z,96330.75
2019-01-31T12:45:23.985Z,96320.52
2019-01-31T12:47:53.238Z,96306.00
2019-01-31T12:50:25.141Z,96322.11
2019-01-31T12:52:54.601Z,96312.20
2019-01-31T12:55:24.007Z,96310.81
2019-01-31T12:57:53.385Z,96301.34
2019-01-31T13:00:25.085Z,96295.13
2019-01-31T13:02:54.490Z,96297.56
2019-01-31T13:05:23.857Z,96281.87
2019-01-31T13:07:53.237Z,96288.34
2019-01-31T13:10:22.577Z,96284.88
2019-01-31T13:12:53.143Z,96280.33
2019-01-31T13:15:23.534Z,96274.11
2019-01-31T13:17:54.225Z,96276.98
2019-01-31T13:20:25.189Z,96281.80
2019-01-31T13:22:56.710Z,96278.78
2019-01-31T13:25:27.403Z,96277.05
2019-01-31T13:27:56.876Z,96265.44
2019-01-31T13:30:26.126Z,96271.06
2019-01-31T13:32:56.946Z,96272.66
2019-01-31T13:35:26.283Z,96264.94
2019-01-31T13:37:56.766Z,96286.34
2019-01-31T13:40:27.586Z,96264.44
2019-01-31T13:42:57.499Z,96272.73
2019-01-31T13:45:29.491Z,96276.66
2019-01-31T13:48:01.794Z,96264.11
2019-01-31T13:50:31.059Z,96267.80
2019-01-31T13:53:00.314Z,96271.35
2019-01-31T13:55:31.354Z,96273.27
2019-01-31T13:58:00.719Z,96268.60
2019-01-31T14:00:32.768Z,96280.74
2019-01-31T14:03:02.041Z,96267.08
2019-01-31T14:05:31.288Z,96267.53
2019-01-31T14:08:00.562Z,96265.92
2019-01-31T14:10:29.925Z,96262.79
2019-01-31T14:12:59.206Z,96274.80
2019-01-31T14:15:33.860Z,96278.53
2019-01-31T14:18:02.334Z,96276.45
2019-01-31T14:20:31.882Z,96271.33
2019-01-31T14:23:01.161Z,96273.83
2019-01-31T14:25:30.419Z,96282.08
2019-01-31T14:27:59.680Z,96269.84
2019-01-31T14:30:34.685Z,96281.87
2019-01-31T14:33:04.511Z,96274.54
2019-01-31T14:35:33.971Z,96278.71
2019-01-31T14:38:03.278Z,96292.14
2019-01-31T14:40:32.726Z,96274.40
2019-01-31T14:43:02.061Z,96282.67
2019-01-31T14:45:31.339Z,96279.53
2019-01-31T14:48:00.676Z,96282.81
2019-01-31T14:50:31.867Z,96283.20
2019-01-31T14:53:01.147Z,96285.38
2019-01-31T14:55:30.419Z,96285.70
2019-01-31T14:58:01.525Z,96282.67
2019-01-31T15:00:31.872Z,96278.23
2019-01-31T15:03:02.957Z,96285.03
2019-01-31T15:05:32.229Z,96276.76
2019-01-31T15:08:02.726Z,96283.11
2019-01-31T15:10:32.008Z,96284.03
2019-01-31T15:13:01.303Z,96274.40
2019-01-31T15:15:30.582Z,96268.69
2019-01-31T15:18:01.279Z,96268.52
2019-01-31T15:20:38.417Z,96270.89
2019-01-31T15:23:07.260Z,96266.56
2019-01-31T15:25:36.525Z,96268.52
2019-01-31T15:28:06.188Z,96265.72
2019-01-31T15:30:36.182Z,96269.54
2019-01-31T15:33:08.167Z,96270.20
2019-01-31T15:35:37.420Z,96258.00
2019-01-31T15:38:06.926Z,96260.78
2019-01-31T15:40:39.442Z,96265.75
2019-01-31T15:43:08.920Z,96274.54
2019-01-31T15:45:38.267Z,96273.64
2019-01-31T15:48:10.549Z,96277.88
2019-01-31T15:50:39.323Z,96273.20
2019-01-31T15:53:09.997Z,96273.48
2019-01-31T15:55:39.559Z,96265.95
2019-01-31T15:58:09.664Z,96269.16
2019-01-31T16:00:46.155Z,96273.98
2019-01-31T16:03:17.775Z,96271.94
2019-01-31T16:05:47.548Z,96277.43
2019-01-31T16:08:17.071Z,96272.60
2019-01-31T16:10:46.631Z,96281.14
2019-01-31T16:13:16.024Z,96277.05
2019-01-31T16:15:46.376Z,96281.20
2019-01-31T16:18:15.721Z,96282.02
2019-01-31T16:20:48.146Z,96276.19
2019-01-31T16:23:20.049Z,96270.19
2019-01-31T16:25:51.981Z,96278.48
2019-01-31T16:28:23.468Z,96276.70
2019-01-31T16:30:55.575Z,96280.08
2019-01-31T16:33:27.229Z,96276.50
2019-01-31T16:35:58.761Z,96276.45
2019-01-31T16:38:30.170Z,96276.54
2019-01-31T16:41:01.614Z,96275.08
2019-01-31T16:43:32.789Z,96269.56
2019-01-31T16:46:04.197Z,96271.95
2019-01-31T16:48:35.614Z,96277.66
2019-01-31T16:51:07.004Z,96274.95
2019-01-31T16:53:38.488Z,96273.63
2019-01-31T16:56:09.831Z,96285.58
2019-01-31T16:58:41.263Z,96278.29
2019-01-31T17:01:12.406Z,96283.00
2019-01-31T17:03:42.350Z,96284.91
2019-01-31T17:06:11.607Z,96281.80
2019-01-31T17:08:42.692Z,96282.53
2019-01-31T17:11:15.373Z,96284.10
2019-01-31T17:13:46.163Z,96290.04
2019-01-31T17:16:16.458Z,96288.81
2019-01-31T17:18:47.238Z,96276.50
2019-01-31T17:21:18.600Z,96271.55
2019-01-31T17:24:09.458Z,96275.59
2019-01-31T17:26:40.516Z,96270.19
2019-01-31T17:29:11.163Z,96272.55
2019-01-31T17:31:41.183Z,96271.55
2019-01-31T17:34:11.678Z,96270.84
2019-01-31T17:36:41.281Z,96267.48
2019-01-31T17:39:13.344Z,96271.42
2019-01-31T17:41:42.692Z,96267.61
2019-01-31T17:44:11.978Z,96263.20
2019-01-31T17:46:41.344Z,96256.92
2019-01-31T17:49:21.268Z,96252.79
2019-01-31T17:51:55.754Z,96257.56
2019-01-31T17:54:35.604Z,96256.66
2019-01-31T17:57:10.040Z,96248.59
2019-01-31T17:59:48.206Z,96248.59
2019-01-31T18:02:17.923Z,96240.73
2019-01-31T18:04:47.236Z,96236.14
2019-01-31T18:07:16.518Z,96238.58
2019-01-31T18:09:46.999Z,96238.84
2019-01-31T18:12:16.963Z,96239.56
2019-01-31T18:14:47.607Z,96237.69
2019-01-31T18:17:19.200Z,96241.86
2019-01-31T18:19:49.375Z,96237.83
2019-01-31T18:22:20.105Z,96235.14
2019-01-31T18:24:49.620Z,96236.20
2019-01-31T18:27:19.143Z,96235.73
2019-01-31T18:29:49.679Z,96234.41
2019-01-31T18:32:19.327Z,96236.72
2019-01-31T18:34:48.611Z,96231.08
2019-01-31T18:37:17.951Z,96228.34
2019-01-31T18:39:48.592Z,96225.19
2019-01-31T18:42:17.869Z,96221.58
2019-01-31T18:44:50.303Z,96223.34
2019-01-31T18:47:21.402Z,96217.50
2019-01-31T18:49:50.695Z,96218.86
2019-01-31T18:52:20.121Z,96222.22
2019-01-31T18:54:50.516Z,96220.36
2019-01-31T18:57:19.929Z,96212.31
2019-01-31T18:59:50.483Z,96216.80
2019-01-31T19:02:20.568Z,96223.67
2019-01-31T19:04:50.001Z,96218.81
2019-01-31T19:07:20.858Z,96219.43
2019-01-31T19:09:50.596Z,96214.78
2019-01-31T19:12:20.735Z,96219.31
2019-01-31T19:14:50.111Z,96219.55
2019-01-31T19:17:19.690Z,96209.44
2019-01-31T19:19:49.061Z,96210.83
2019-01-31T19:22:18.387Z,96202.91
2019-01-31T19:24:48.178Z,96219.78
2019-01-31T19:27:17.484Z,96209.49
2019-01-31T19:29:46.780Z,96215.34
2019-01-31T19:32:18.620Z,96199.36
2019-01-31T19:34:48.016Z,96198.66
2019-01-31T19:37:17.312Z,96191.17
2019-01-31T19:39:46.664Z,96183.83
2019-01-31T19:42:16.242Z,96173.39
2019-01-31T19:44:45.778Z,96179.26
2019-01-31T19:47:15.114Z,96171.72
2019-01-31T19:49:46.512Z,96172.97
2019-01-31T19:52:18.146Z,96176.44
2019-01-31T19:54:47.434Z,96173.38
2019-01-31T19:57:17.223Z,96168.68
2019-01-31T19:59:46.509Z,96167.46
2019-01-31T20:02:16.176Z,96163.17
2019-01-31T20:04:46.774Z,96161.56
2019-01-31T20:07:20.774Z,96156.98
2019-01-31T20:09:50.048Z,96154.73
2019-01-31T20:12:19.320Z,96146.58
2019-01-31T20:14:48.959Z,96142.33
2019-01-31T20:17:18.410Z,96137.58
2019-01-31T20:19:47.827Z,96136.94
2019-01-31T20:22:17.659Z,96141.28
2019-01-31T20:24:48.894Z,96137.20
2019-01-31T20:27:19.307Z,96132.45
2019-01-31T20:30:09.897Z,96143.44
2019-01-31T20:32:42.087Z,96138.40
2019-01-31T20:35:12.943Z,96135.52
2019-01-31T20:37:42.207Z,96131.14
2019-01-31T20:40:14.090Z,96125.12
2019-01-31T20:42:43.390Z,96130.50
2019-01-31T20:45:14.019Z,96132.31
2019-01-31T20:47:43.526Z,96131.20
2019-01-31T20:50:15.732Z,96122.79
2019-01-31T20:52:45.481Z,96128.35
2019-01-31T20:55:15.473Z,96119.47
2019-01-31T20:57:44.959Z,96117.20
2019-01-31T21:00:22.905Z,96114.81
2019-01-31T21:02:52.402Z,96107.00
2019-01-31T21:05:22.077Z,96103.16
2019-01-31T21:07:51.461Z,96100.66
2019-01-31T21:10:21.015Z,96103.31
2019-01-31T21:12:50.409Z,96100.86
2019-01-31T21:15:21.274Z,96094.23
2019-01-31T21:17:50.945Z,96091.74
2019-01-31T21:20:21.567Z,96085.19
2019-01-31T21:22:51.480Z,96083.63
2019-01-31T21:25:20.997Z,96072.59
2019-01-31T21:27:50.709Z,96069.75
2019-01-31T21:30:26.589Z,96067.52
2019-01-31T21:32:57.707Z,96059.02
2019-01-31T21:35:28.451Z,96057.77
2019-01-31T21:37:58.172Z,96044.23
2019-01-31T21:40:28.941Z,96051.09
2019-01-31T21:42:58.361Z,96050.10
2019-01-31T21:45:28.228Z,96052.57
2019-01-31T21:47:57.612Z,96048.83
2019-01-31T21:50:28.100Z,96051.78
2019-01-31T21:52:57.765Z,96049.22
2019-01-31T21:55:27.581Z,96035.89
2019-01-31T21:57:57.027Z,96038.51
2019-01-31T22:00:28.638Z,96036.70
2019-01-31T22:02:58.162Z,96042.30
2019-01-31T22:05:27.660Z,96034.83
2019-01-31T22:07:56.932Z,96023.51
2019-01-31T22:10:26.396Z,96027.22
2019-01-31T22:12:55.691Z,96024.98
2019-01-31T22:15:27.529Z,96023.28
2019-01-31T22:17:59.999Z,96022.59
2019-01-31T22:20:28.018Z,96019.26
2019-01-31T22:22:57.701Z,96018.34
2019-01-31T22:25:27.428Z,96017.13
2019-01-31T22:27:56.752Z,96013.44
2019-01-31T22:30:28.453Z,96012.41
2019-01-31T22:32:57.875Z,96016.26
2019-01-31T22:35:27.442Z,96018.61
2019-01-31T22:37:56.841Z,96017.08
2019-01-31T22:40:26.401Z,96007.05
2019-01-31T22:42:55.886Z,96002.49
2019-01-31T22:45:25.426Z,96010.38
2019-01-31T22:47:55.101Z,95998.77
2019-01-31T22:50:25.015Z,95998.21
2019-01-31T22:52:54.908Z,95993.77
2019-01-31T22:55:25.489Z,95987.84
2019-01-31T22:57:55.316Z,95983.85
2019-01-31T23:01:07.188Z,95986.66
2019-01-31T23:03:37.449Z,95978.05
2019-01-31T23:06:11.051Z,95980.08
2019-01-31T23:08:40.903Z,95976.75
2019-01-31T23:11:11.972Z,95965.09
2019-01-31T23:13:41.324Z,95974.52
2019-01-31T23:16:11.305Z,95970.27
2019-01-31T23:18:40.588Z,95960.63
2019-01-31T23:21:09.975Z,95968.27
2019-01-31T23:23:39.250Z,95964.67
2019-01-31T23:26:08.838Z,95945.89
2019-01-31T23:28:38.503Z,95940.08
2019-01-31T23:31:09.172Z,95943.43
2019-01-31T23:33:41.143Z,95945.91
2019-01-31T23:36:09.485Z,95937.19
2019-01-31T23:38:38.744Z,95939.64
2019-01-31T23:41:08.034Z,95935.38
2019-01-31T23:43:37.305Z,95928.22
2019-01-31T23:46:06.805Z,95925.77
2019-01-31T23:48:36.117Z,95928.00
2019-01-31T23:51:05.582Z,95920.64
2019-01-31T23:53:34.869Z,95919.94
2019-01-31T23:56:04.546Z,95922.63
2019-01-31T23:58:33.821Z,95907.22
